Algonac, Michigan
Current Conditions -  °F | °C
As of 11:58 PM on Sunday 21 Dec 2014 (Local Time) from KMTC Reporting Station
Clear Clear  
Wind Chill: -6°   Ceiling: Unl
Heat Index: -2°   Visibility: 10mi
Dew Point: -3°   Wind: 8mph
Humidity: 89%   Direction: 140°SE
Pressure: 30.18"   Gusts: NA
Location:  42.62°N, 82.53°W
Report Text: KMTC 220458Z AUTO 14007KT 10SM CLR M02/M03 A3018 RMK AO2 SLP230 T10181034 400171054 $
Loading
Personal Weather Stations






























Interactive Weather Map New forecast layout! Learn more

10-Day Weather Forecast

Advertisements
Track Severe Weather on mobile